Aérodrome :
LOGIN :

S'inscrire | Disclaimer

   EN    FR    IT 

 










Légende :    VFR   VFR Marginal   IFR   IFR Intensif   IFR Très Intensif
Visi : 
Plafond : 
>= 8 km
>= 3000ft
5 à 8 km
1000 à 3000 ft
1500m à 5 km
500 à 1000 ft
800 à 1500m
200 à 500 ft
< 800m
< 200 ft
Symboles :   Orages  Brouillard  Fortes neiges  Fortes précipitations  Vent > 20 kt
SIGMETs :   Divers  Orages  Givrage  Turbulence  Onde Orograph.  Cendres Volcan.







- Altitude de l'aérodrome : -11 ft
- Code IATA : AMS


EHAM - Amsterdam Schiphol

DERNIER METAR :
  • 211255Z 32011G21KT 270V010 9999 FEW035 25/16 Q1011 NOSIG

METARs EXPIRÉS :
  • 211225Z 34010KT 260V040 9999 FEW035 25/16 Q1011 NOSIG
  • 211155Z 32011KT 280V020 9999 FEW035 25/16 Q1011 NOSIG
  • 211125Z 31010KT 250V350 9999 FEW040 25/16 Q1011 NOSIG
  • 211055Z 32010KT 280V020 9999 FEW040 24/15 Q1011 NOSIG
  • 211025Z VRB07KT 9999 FEW040 25/13 Q1011 NOSIG

TAF TAF EHAM
Valide du 21 à 12h jusqu'au 22 à 18h UTC


211054Z 2112/2218 32012KT 9999 FEW040
BECMG 2118/2121 34005KT CAVOK
BECMG 2210/2212 30010KT
Pas de NOTAMs connus pour ce terrain.



MET'MAP, la Météo Aéronautique d'un coup d'oeil ! - Copyright ORBIFLY Décembre 2007 - Disclaimer

ORBIFLY MET'MAP TEAM :

Programmation & Développement : Alexandra Zaïnal
Conception & Développement : Baudouin d'Aumeries
Co-Programmation & Développement : Marc-Olivier Méhu
Soutien technique & logistique : Manuel Goepfert

Contact : metmap@orbifly.com




SOURCES & CREDITS :

   NOAA